Time,TemperatureF,DewpointF,PressureIn,WindDirection,WindDirectionDegrees,WindSpeedMPH,WindSpeedGustMPH,Humidity,HourlyPrecipIn,Conditions,Clouds,dailyrainin,SoftwareType,DateUTC
2013-04-20 00:02:00,37.0,26.0,30.01,NW,310,10.0,10.0,64,0.00,,,0.02,,2013-04-20 05:02:00,
2013-04-20 00:12:00,37.0,26.0,30.01,NW,310,10.0,10.0,64,0.00,,,0.02,,2013-04-20 05:12:00,
2013-04-20 00:22:00,37.0,26.0,30.01,NW,310,10.0,10.0,64,0.00,,,0.02,,2013-04-20 05:22:00,
2013-04-20 00:32:00,37.0,25.0,30.03,NW,320,9.0,21.0,61,0.00,,,0.02,,2013-04-20 05:32:00,
2013-04-20 00:42:00,37.0,25.0,30.03,NW,320,9.0,21.0,61,0.00,,,0.02,,2013-04-20 05:42:00,
2013-04-20 00:52:00,37.0,25.0,30.03,NW,320,9.0,21.0,61,0.00,,,0.02,,2013-04-20 05:52:00,
2013-04-20 01:02:00,37.0,25.0,30.03,NW,320,9.0,21.0,61,0.00,,,0.02,,2013-04-20 06:02:00,
2013-04-20 01:12:00,37.0,25.0,30.03,NW,320,9.0,21.0,61,0.00,,,0.02,,2013-04-20 06:12:00,
2013-04-20 01:21:00,37.0,25.0,30.03,NW,320,9.0,21.0,61,0.00,,,0.02,,2013-04-20 06:21:00,
2013-04-20 01:32:00,36.0,22.0,30.04,WNW,290,8.0,21.0,56,0.00,,,0.02,,2013-04-20 06:32:00,
2013-04-20 01:42:00,36.0,22.0,30.04,WNW,290,8.0,21.0,56,0.00,,,0.02,,2013-04-20 06:42:00,
2013-04-20 01:52:00,36.0,22.0,30.04,WNW,290,8.0,8.0,56,0.00,,,0.02,,2013-04-20 06:52:00,
2013-04-20 02:01:00,36.0,22.0,30.04,WNW,290,8.0,8.0,56,0.00,,,0.02,,2013-04-20 07:01:00,
2013-04-20 02:11:00,36.0,22.0,30.04,WNW,290,8.0,8.0,56,0.00,,,0.02,,2013-04-20 07:11:00,
2013-04-20 02:21:00,36.0,22.0,30.04,WNW,290,8.0,8.0,56,0.00,,,0.02,,2013-04-20 07:21:00,
2013-04-20 02:32:00,34.0,23.0,30.05,WNW,300,9.0,9.0,63,0.00,,,0.02,,2013-04-20 07:32:00,
2013-04-20 02:42:00,34.0,23.0,30.05,WNW,300,9.0,9.0,63,0.00,,,0.02,,2013-04-20 07:42:00,
2013-04-20 02:52:00,34.0,23.0,30.05,WNW,300,9.0,9.0,63,0.00,,,0.02,,2013-04-20 07:52:00,
2013-04-20 03:01:00,34.0,23.0,30.05,WNW,300,9.0,9.0,63,0.00,,,0.02,,2013-04-20 08:01:00,
2013-04-20 03:11:00,34.0,23.0,30.05,WNW,300,9.0,9.0,63,0.00,,,0.02,,2013-04-20 08:11:00,
2013-04-20 03:21:00,34.0,23.0,30.05,WNW,300,9.0,9.0,63,0.00,,,0.02,,2013-04-20 08:21:00,
2013-04-20 03:31:00,33.0,24.0,30.07,West,280,6.0,9.0,69,0.00,,,0.02,,2013-04-20 08:31:00,
2013-04-20 03:42:00,33.0,24.0,30.07,West,280,6.0,9.0,69,0.00,,,0.02,,2013-04-20 08:42:00,
2013-04-20 03:52:00,33.0,24.0,30.07,West,280,6.0,6.0,69,0.00,,,0.02,,2013-04-20 08:52:00,
2013-04-20 04:01:00,33.0,24.0,30.07,West,280,6.0,6.0,69,0.00,,,0.02,,2013-04-20 09:01:00,
2013-04-20 04:12:00,33.0,24.0,30.07,West,280,6.0,6.0,69,0.00,,,0.02,,2013-04-20 09:12:00,
2013-04-20 04:21:00,33.0,24.0,30.07,West,280,6.0,6.0,69,0.00,,,0.02,,2013-04-20 09:21:00,
2013-04-20 04:33:00,32.0,24.0,30.09,WNW,290,5.0,6.0,72,0.00,,,0.02,,2013-04-20 09:33:00,
2013-04-20 04:43:00,32.0,24.0,30.09,WNW,290,5.0,5.0,72,0.00,,,0.02,,2013-04-20 09:43:00,
2013-04-20 04:53:00,32.0,24.0,30.09,WNW,290,5.0,5.0,72,0.00,,,0.02,,2013-04-20 09:53:00,
2013-04-20 05:02:00,32.0,24.0,30.09,WNW,290,5.0,5.0,72,0.00,,,0.02,,2013-04-20 10:02:00,
2013-04-20 05:12:00,32.0,24.0,30.09,WNW,290,5.0,5.0,72,0.00,,,0.02,,2013-04-20 10:12:00,
2013-04-20 05:23:00,32.0,24.0,30.09,WNW,290,5.0,5.0,72,0.00,,,0.02,,2013-04-20 10:23:00,
2013-04-20 05:33:00,30.0,24.0,30.11,West,280,6.0,6.0,78,0.00,,,0.02,,2013-04-20 10:33:00,
2013-04-20 05:42:00,30.0,24.0,30.11,West,280,6.0,6.0,78,0.00,,,0.02,,2013-04-20 10:42:00,
2013-04-20 05:53:00,30.0,24.0,30.11,West,280,6.0,6.0,78,0.00,,,0.02,,2013-04-20 10:53:00,
2013-04-20 06:02:00,30.0,24.0,30.11,West,280,6.0,6.0,78,0.00,,,0.02,,2013-04-20 11:02:00,
2013-04-20 06:12:00,30.0,24.0,30.11,West,280,6.0,6.0,78,0.00,,,0.02,,2013-04-20 11:12:00,
2013-04-20 06:23:00,30.0,24.0,30.11,West,280,6.0,6.0,78,0.00,,,0.02,,2013-04-20 11:23:00,
2013-04-20 06:32:00,31.0,24.0,30.14,WNW,300,6.0,6.0,75,0.00,,,0.02,,2013-04-20 11:32:00,
2013-04-20 06:42:00,31.0,24.0,30.14,WNW,300,6.0,6.0,75,0.00,,,0.02,,2013-04-20 11:42:00,
2013-04-20 06:53:00,31.0,24.0,30.14,WNW,300,6.0,6.0,75,0.00,,,0.02,,2013-04-20 11:53:00,
2013-04-20 07:02:00,31.0,24.0,30.14,WNW,300,6.0,6.0,75,0.00,,,0.02,,2013-04-20 12:02:00,
2013-04-20 07:11:00,31.0,24.0,30.14,WNW,300,6.0,6.0,75,0.00,,,0.02,,2013-04-20 12:11:00,
2013-04-20 07:22:00,31.0,24.0,30.14,WNW,300,6.0,6.0,75,0.00,,,0.02,,2013-04-20 12:22:00,
2013-04-20 07:32:00,31.0,25.0,30.16,NNW,330,6.0,6.0,78,0.00,,,0.02,,2013-04-20 12:32:00,
2013-04-20 07:42:00,31.0,25.0,30.16,NNW,330,6.0,6.0,78,0.00,,,0.02,,2013-04-20 12:42:00,
2013-04-20 07:52:00,31.0,25.0,30.16,NNW,330,6.0,6.0,78,0.00,,,0.02,,2013-04-20 12:52:00,
2013-04-20 08:02:00,31.0,25.0,30.16,NNW,330,6.0,6.0,78,0.00,,,0.02,,2013-04-20 13:02:00,
2013-04-20 08:11:00,31.0,25.0,30.16,NNW,330,6.0,6.0,78,0.00,,,0.02,,2013-04-20 13:11:00,
2013-04-20 08:21:00,31.0,25.0,30.16,NNW,330,6.0,6.0,78,0.00,,,0.02,,2013-04-20 13:21:00,
2013-04-20 08:31:00,34.0,26.0,30.21,NW,310,7.0,7.0,72,0.00,,,0.02,,2013-04-20 13:31:00,
2013-04-20 08:42:00,34.0,26.0,30.21,NW,310,7.0,7.0,72,0.00,,,0.02,,2013-04-20 13:42:00,
2013-04-20 08:52:00,34.0,26.0,30.21,NW,310,7.0,7.0,72,0.00,,,0.02,,2013-04-20 13:52:00,
2013-04-20 09:02:00,34.0,26.0,30.21,NW,310,7.0,7.0,72,0.00,,,0.02,,2013-04-20 14:02:00,
2013-04-20 09:11:00,34.0,26.0,30.21,NW,310,7.0,7.0,72,0.00,,,0.02,,2013-04-20 14:11:00,
2013-04-20 09:21:00,34.0,26.0,30.21,NW,310,7.0,7.0,72,0.00,,,0.02,,2013-04-20 14:21:00,
2013-04-20 09:31:00,37.0,27.0,30.24,West,280,3.0,7.0,66,0.00,,,0.02,,2013-04-20 14:31:00,
2013-04-20 09:42:00,37.0,27.0,30.24,West,280,3.0,7.0,66,0.00,,,0.02,,2013-04-20 14:42:00,
2013-04-20 09:52:00,37.0,27.0,30.24,West,280,3.0,3.0,66,0.00,,,0.02,,2013-04-20 14:52:00,
2013-04-20 10:01:00,37.0,27.0,30.24,West,280,3.0,3.0,66,0.00,,,0.02,,2013-04-20 15:01:00,
2013-04-20 10:11:00,37.0,27.0,30.24,West,280,3.0,3.0,66,0.00,,,0.02,,2013-04-20 15:11:00,
2013-04-20 10:21:00,37.0,27.0,30.24,West,280,3.0,3.0,66,0.00,,,0.02,,2013-04-20 15:21:00,
2013-04-20 10:33:00,40.0,26.0,30.26,West,280,3.0,3.0,57,0.00,,,0.02,,2013-04-20 15:33:00,
2013-04-20 10:43:00,40.0,26.0,30.26,West,280,3.0,3.0,57,0.00,,,0.02,,2013-04-20 15:43:00,
2013-04-20 10:53:00,40.0,26.0,30.26,West,280,3.0,3.0,57,0.00,,,0.02,,2013-04-20 15:53:00,
2013-04-20 11:03:00,40.0,26.0,30.26,West,280,3.0,3.0,57,0.00,,,0.02,,2013-04-20 16:03:00,
2013-04-20 11:12:00,40.0,26.0,30.26,West,280,3.0,3.0,57,0.00,,,0.02,,2013-04-20 16:12:00,
2013-04-20 11:23:00,40.0,26.0,30.26,West,280,3.0,3.0,57,0.00,,,0.02,,2013-04-20 16:23:00,
2013-04-20 11:32:00,42.0,22.0,30.28,West,260,7.0,7.0,44,0.00,,,0.02,,2013-04-20 16:32:00,
2013-04-20 11:42:00,42.0,22.0,30.28,West,260,7.0,7.0,44,0.00,,,0.02,,2013-04-20 16:42:00,
2013-04-20 11:53:00,42.0,22.0,30.28,West,260,7.0,7.0,44,0.00,,,0.02,,2013-04-20 16:53:00,
2013-04-20 12:02:00,42.0,22.0,30.28,West,260,7.0,7.0,44,0.00,,,0.02,,2013-04-20 17:02:00,
2013-04-20 12:12:00,42.0,22.0,30.28,West,260,7.0,7.0,44,0.00,,,0.02,,2013-04-20 17:12:00,
2013-04-20 12:23:00,42.0,22.0,30.28,West,260,7.0,7.0,44,0.00,,,0.02,,2013-04-20 17:23:00,
2013-04-20 12:33:00,43.0,24.0,30.28,West,260,7.0,7.0,46,0.00,,,0.02,,2013-04-20 17:33:00,
2013-04-20 12:42:00,43.0,24.0,30.28,West,260,7.0,7.0,46,0.00,,,0.02,,2013-04-20 17:42:00,
2013-04-20 12:52:00,43.0,24.0,30.28,West,260,7.0,7.0,46,0.00,,,0.02,,2013-04-20 17:52:00,
2013-04-20 13:02:00,43.0,24.0,30.28,West,260,7.0,7.0,46,0.00,,,0.02,,2013-04-20 18:02:00,
2013-04-20 13:12:00,43.0,24.0,30.28,West,260,7.0,7.0,46,0.00,,,0.02,,2013-04-20 18:12:00,
2013-04-20 13:22:00,43.0,24.0,30.28,West,260,7.0,7.0,46,0.00,,,0.02,,2013-04-20 18:22:00,
2013-04-20 13:32:00,45.0,26.0,30.28,West,260,7.0,7.0,47,0.00,,,0.02,,2013-04-20 18:32:00,
2013-04-20 13:42:00,45.0,26.0,30.28,West,260,7.0,7.0,47,0.00,,,0.02,,2013-04-20 18:42:00,
2013-04-20 13:52:00,45.0,26.0,30.28,West,260,7.0,7.0,47,0.00,,,0.02,,2013-04-20 18:52:00,
2013-04-20 14:01:00,45.0,26.0,30.28,West,260,7.0,7.0,47,0.00,,,0.02,,2013-04-20 19:01:00,
2013-04-20 14:11:00,45.0,26.0,30.28,West,260,7.0,7.0,47,0.00,,,0.02,,2013-04-20 19:11:00,
2013-04-20 14:21:00,45.0,26.0,30.28,West,260,7.0,7.0,47,0.00,,,0.02,,2013-04-20 19:21:00,
2013-04-20 14:32:00,46.0,25.0,30.29,NNW,340,9.0,9.0,43,0.00,,,0.02,,2013-04-20 19:32:00,
2013-04-20 14:42:00,46.0,25.0,30.29,NNW,340,9.0,9.0,43,0.00,,,0.02,,2013-04-20 19:42:00,
2013-04-20 14:52:00,46.0,25.0,30.29,NNW,340,9.0,9.0,43,0.00,,,0.02,,2013-04-20 19:52:00,
2013-04-20 15:02:00,46.0,25.0,30.29,NNW,340,9.0,9.0,43,0.00,,,0.02,,2013-04-20 20:02:00,
2013-04-20 15:12:00,46.0,25.0,30.29,NNW,340,9.0,9.0,43,0.00,,,0.02,,2013-04-20 20:12:00,
2013-04-20 15:21:00,46.0,25.0,30.29,NNW,340,9.0,9.0,43,0.00,,,0.02,,2013-04-20 20:21:00,
2013-04-20 15:32:00,46.0,24.0,30.29,NNW,340,0.0,9.0,41,0.00,,,0.02,,2013-04-20 20:32:00,
2013-04-20 15:42:00,46.0,24.0,30.29,NNW,340,0.0,9.0,41,0.00,,,0.02,,2013-04-20 20:42:00,
2013-04-20 15:52:00,46.0,24.0,30.29,NNW,340,0.0,0.0,41,0.00,,,0.02,,2013-04-20 20:52:00,
2013-04-20 16:01:00,46.0,24.0,30.29,NNW,340,0.0,0.0,41,0.00,,,0.02,,2013-04-20 21:01:00,
2013-04-20 16:12:00,46.0,24.0,30.29,NNW,340,0.0,0.0,41,0.00,,,0.02,,2013-04-20 21:12:00,
2013-04-20 16:21:00,46.0,24.0,30.29,NNW,340,0.0,0.0,41,0.00,,,0.02,,2013-04-20 21:21:00,
2013-04-20 16:33:00,49.0,27.0,30.28,West,280,6.0,6.0,42,0.00,,,0.02,,2013-04-20 21:33:00,
2013-04-20 16:43:00,49.0,27.0,30.28,West,280,6.0,6.0,42,0.00,,,0.02,,2013-04-20 21:43:00,
2013-04-20 16:53:00,49.0,27.0,30.28,West,280,6.0,6.0,42,0.00,,,0.02,,2013-04-20 21:53:00,
2013-04-20 17:02:00,49.0,27.0,30.28,West,280,6.0,6.0,42,0.00,,,0.02,,2013-04-20 22:02:00,
2013-04-20 17:12:00,49.0,27.0,30.28,West,280,6.0,6.0,42,0.00,,,0.02,,2013-04-20 22:12:00,
2013-04-20 17:22:00,49.0,27.0,30.28,West,280,6.0,6.0,42,0.00,,,0.02,,2013-04-20 22:22:00,
2013-04-20 17:32:00,49.0,25.0,30.28,West,280,6.0,6.0,38,0.00,,,0.02,,2013-04-20 22:32:00,
2013-04-20 17:42:00,49.0,25.0,30.28,West,280,6.0,6.0,38,0.00,,,0.02,,2013-04-20 22:42:00,
2013-04-20 17:53:00,49.0,25.0,30.28,West,280,6.0,6.0,38,0.00,,,0.02,,2013-04-20 22:53:00,
2013-04-20 18:02:00,49.0,25.0,30.28,West,280,6.0,6.0,38,0.00,,,0.02,,2013-04-20 23:02:00,
2013-04-20 18:11:00,49.0,25.0,30.28,West,280,6.0,6.0,38,0.00,,,0.02,,2013-04-20 23:11:00,
2013-04-20 18:22:00,49.0,25.0,30.28,West,280,6.0,6.0,38,0.00,,,0.02,,2013-04-20 23:22:00,
2013-04-20 18:32:00,48.0,22.0,30.29,West,270,3.0,6.0,35,0.00,,,0.02,,2013-04-20 23:32:00,
2013-04-20 18:42:00,48.0,22.0,30.29,West,270,3.0,6.0,35,0.00,,,0.02,,2013-04-20 23:42:00,
2013-04-20 18:53:00,48.0,22.0,30.29,West,270,3.0,3.0,35,0.00,,,0.02,,2013-04-20 23:53:00,
2013-04-20 19:01:00,48.0,22.0,30.29,West,270,3.0,3.0,35,0.00,,,0.02,,2013-04-21 00:01:00,
2013-04-20 19:11:00,48.0,22.0,30.29,West,270,3.0,3.0,35,0.00,,,0.02,,2013-04-21 00:11:00,
2013-04-20 19:21:00,48.0,22.0,30.29,West,270,3.0,3.0,35,0.00,,,0.02,,2013-04-21 00:21:00,
2013-04-20 19:32:00,46.0,25.0,30.29,NE,50,7.0,7.0,43,0.00,,,0.01,,2013-04-21 00:32:00,
2013-04-20 19:42:00,46.0,25.0,30.29,NE,50,7.0,7.0,43,0.00,,,0.01,,2013-04-21 00:42:00,
2013-04-20 19:52:00,46.0,25.0,30.29,NE,50,7.0,7.0,43,0.00,,,0.01,,2013-04-21 00:52:00,
2013-04-20 20:01:00,46.0,25.0,30.29,NE,50,7.0,7.0,43,0.00,,,0.01,,2013-04-21 01:01:00,
2013-04-20 20:11:00,46.0,25.0,30.29,NE,50,7.0,7.0,43,0.00,,,0.01,,2013-04-21 01:11:00,
2013-04-20 20:21:00,46.0,25.0,30.29,NE,50,7.0,7.0,43,0.00,,,0.00,,2013-04-21 01:21:00,
2013-04-20 20:31:00,43.0,25.0,30.32,NE,40,5.0,7.0,48,0.00,,,0.00,,2013-04-21 01:31:00,
2013-04-20 20:42:00,43.0,25.0,30.32,NE,40,5.0,7.0,48,0.00,,,0.00,,2013-04-21 01:42:00,
2013-04-20 20:52:00,43.0,25.0,30.32,NE,40,5.0,5.0,48,0.00,,,0.00,,2013-04-21 01:52:00,
2013-04-20 21:01:00,43.0,25.0,30.32,NE,40,5.0,5.0,48,0.00,,,0.00,,2013-04-21 02:01:00,
2013-04-20 21:11:00,43.0,25.0,30.32,NE,40,5.0,5.0,48,0.00,,,0.00,,2013-04-21 02:11:00,
2013-04-20 21:21:00,43.0,25.0,30.32,NE,40,5.0,5.0,48,0.00,,,0.00,,2013-04-21 02:21:00,
2013-04-20 21:32:00,42.0,26.0,30.35,East,90,5.0,5.0,52,0.00,,,0.00,,2013-04-21 02:32:00,
2013-04-20 21:41:00,42.0,26.0,30.35,East,90,5.0,5.0,52,0.00,,,0.00,,2013-04-21 02:41:00,
2013-04-20 21:52:00,42.0,26.0,30.35,East,90,5.0,5.0,52,0.00,,,0.00,,2013-04-21 02:52:00,
2013-04-20 22:01:00,42.0,26.0,30.35,East,90,5.0,5.0,52,0.00,,,0.00,,2013-04-21 03:01:00,
2013-04-20 22:11:00,42.0,26.0,30.35,East,90,5.0,5.0,52,0.00,,,0.00,,2013-04-21 03:11:00,
2013-04-20 22:21:00,42.0,26.0,30.35,East,90,5.0,5.0,52,0.00,,,0.00,,2013-04-21 03:21:00,
2013-04-20 22:32:00,41.0,28.0,30.37,East,90,6.0,6.0,59,0.00,,,0.00,,2013-04-21 03:32:00,
2013-04-20 22:42:00,41.0,28.0,30.37,East,90,6.0,6.0,59,0.00,,,0.00,,2013-04-21 03:42:00,
2013-04-20 22:52:00,41.0,28.0,30.37,East,90,6.0,6.0,59,0.00,,,0.00,,2013-04-21 03:52:00,
2013-04-20 23:02:00,41.0,28.0,30.37,East,90,6.0,6.0,59,0.00,,,0.00,,2013-04-21 04:02:00,
2013-04-20 23:12:00,41.0,28.0,30.37,East,90,6.0,6.0,59,0.00,,,0.00,,2013-04-21 04:12:00,
2013-04-20 23:22:00,41.0,28.0,30.37,East,90,6.0,6.0,59,0.00,,,0.00,,2013-04-21 04:22:00,
2013-04-20 23:33:00,40.0,27.0,30.37,ESE,110,7.0,7.0,59,0.00,,,0.00,,2013-04-21 04:33:00,
2013-04-20 23:42:00,40.0,27.0,30.37,ESE,110,7.0,7.0,59,0.00,,,0.00,,2013-04-21 04:42:00,
2013-04-20 23:53:00,40.0,27.0,30.37,ESE,110,7.0,7.0,59,0.00,,,0.00,,2013-04-21 04:53:00,